sensor_id;sensor_type;location;lat;lon;timestamp;P1;durP1;ratioP1;P2;durP2;ratioP2
62509;SDS011;48558;48.242;11.654;2022-12-07T00:03:22;8.25;;;5.68;;
62509;SDS011;48558;48.242;11.654;2022-12-07T00:07:34;9.75;;;5.57;;
62509;SDS011;48558;48.242;11.654;2022-12-07T00:11:48;5.82;;;4.07;;
62509;SDS011;48558;48.242;11.654;2022-12-07T00:16:15;6.45;;;4.40;;
62509;SDS011;48558;48.242;11.654;2022-12-07T00:20:32;5.10;;;4.35;;
62509;SDS011;48558;48.242;11.654;2022-12-07T00:24:45;7.82;;;4.65;;
62509;SDS011;48558;48.242;11.654;2022-12-07T00:28:58;7.78;;;5.07;;
62509;SDS011;48558;48.242;11.654;2022-12-07T00:33:12;7.45;;;5.15;;
62509;SDS011;48558;48.242;11.654;2022-12-07T00:37:24;5.68;;;4.78;;
62509;SDS011;48558;48.242;11.654;2022-12-07T00:41:36;5.68;;;4.68;;
62509;SDS011;48558;48.242;11.654;2022-12-07T00:45:49;5.75;;;4.03;;
62509;SDS011;48558;48.242;11.654;2022-12-07T00:50:01;3.92;;;3.50;;
62509;SDS011;48558;48.242;11.654;2022-12-07T00:54:14;7.78;;;3.90;;
62509;SDS011;48558;48.242;11.654;2022-12-07T00:58:27;5.22;;;3.60;;
62509;SDS011;48558;48.242;11.654;2022-12-07T01:02:39;5.28;;;3.92;;
62509;SDS011;48558;48.242;11.654;2022-12-07T01:06:53;8.60;;;4.50;;
62509;SDS011;48558;48.242;11.654;2022-12-07T01:11:06;6.35;;;4.10;;
62509;SDS011;48558;48.242;11.654;2022-12-07T01:15:30;6.25;;;4.60;;
62509;SDS011;48558;48.242;11.654;2022-12-07T01:19:42;6.97;;;4.30;;
62509;SDS011;48558;48.242;11.654;2022-12-07T01:24:05;3.83;;;3.42;;
62509;SDS011;48558;48.242;11.654;2022-12-07T01:28:20;4.85;;;3.70;;
62509;SDS011;48558;48.242;11.654;2022-12-07T01:32:33;5.20;;;4.13;;
62509;SDS011;48558;48.242;11.654;2022-12-07T01:36:45;7.00;;;3.92;;
62509;SDS011;48558;48.242;11.654;2022-12-07T01:40:58;3.63;;;3.15;;
62509;SDS011;48558;48.242;11.654;2022-12-07T01:49:37;4.90;;;4.00;;
62509;SDS011;48558;48.242;11.654;2022-12-07T01:53:59;5.63;;;4.13;;
62509;SDS011;48558;48.242;11.654;2022-12-07T01:58:12;4.93;;;4.10;;
62509;SDS011;48558;48.242;11.654;2022-12-07T02:02:27;6.85;;;4.78;;
62509;SDS011;48558;48.242;11.654;2022-12-07T02:06:43;6.82;;;4.32;;
62509;SDS011;48558;48.242;11.654;2022-12-07T02:10:56;5.07;;;4.18;;
62509;SDS011;48558;48.242;11.654;2022-12-07T02:15:09;11.13;;;5.00;;
62509;SDS011;48558;48.242;11.654;2022-12-07T02:23:54;5.95;;;4.63;;
62509;SDS011;48558;48.242;11.654;2022-12-07T02:28:31;7.40;;;5.03;;
62509;SDS011;48558;48.242;11.654;2022-12-07T02:37:12;8.98;;;5.18;;
62509;SDS011;48558;48.242;11.654;2022-12-07T02:41:37;5.60;;;4.22;;
62509;SDS011;48558;48.242;11.654;2022-12-07T02:45:58;6.47;;;4.38;;
62509;SDS011;48558;48.242;11.654;2022-12-07T02:50:17;6.82;;;4.78;;
62509;SDS011;48558;48.242;11.654;2022-12-07T02:54:31;7.53;;;4.93;;
62509;SDS011;48558;48.242;11.654;2022-12-07T03:03:25;5.53;;;4.35;;
62509;SDS011;48558;48.242;11.654;2022-12-07T03:11:57;3.97;;;3.53;;
62509;SDS011;48558;48.242;11.654;2022-12-07T03:20:32;6.15;;;4.43;;
62509;SDS011;48558;48.242;11.654;2022-12-07T03:24:52;6.30;;;4.63;;
62509;SDS011;48558;48.242;11.654;2022-12-07T03:29:11;5.88;;;4.75;;
62509;SDS011;48558;48.242;11.654;2022-12-07T03:33:31;7.07;;;4.72;;
62509;SDS011;48558;48.242;11.654;2022-12-07T03:37:50;6.07;;;4.25;;
62509;SDS011;48558;48.242;11.654;2022-12-07T03:42:07;5.57;;;4.53;;
62509;SDS011;48558;48.242;11.654;2022-12-07T03:46:34;6.68;;;4.13;;
62509;SDS011;48558;48.242;11.654;2022-12-07T03:50:50;5.15;;;4.13;;
62509;SDS011;48558;48.242;11.654;2022-12-07T03:59:23;6.78;;;4.68;;
62509;SDS011;48558;48.242;11.654;2022-12-07T04:03:36;5.07;;;4.13;;
62509;SDS011;48558;48.242;11.654;2022-12-07T04:07:48;5.75;;;4.43;;
62509;SDS011;48558;48.242;11.654;2022-12-07T04:12:01;5.22;;;4.05;;
62509;SDS011;48558;48.242;11.654;2022-12-07T04:16:13;5.00;;;3.95;;
62509;SDS011;48558;48.242;11.654;2022-12-07T04:20:26;7.18;;;4.38;;
62509;SDS011;48558;48.242;11.654;2022-12-07T04:24:38;5.40;;;4.20;;
62509;SDS011;48558;48.242;11.654;2022-12-07T04:28:50;7.82;;;4.35;;
62509;SDS011;48558;48.242;11.654;2022-12-07T04:33:03;8.63;;;4.75;;
62509;SDS011;48558;48.242;11.654;2022-12-07T04:37:15;7.35;;;5.53;;
62509;SDS011;48558;48.242;11.654;2022-12-07T04:41:30;5.65;;;4.88;;
62509;SDS011;48558;48.242;11.654;2022-12-07T04:45:46;6.40;;;4.97;;
62509;SDS011;48558;48.242;11.654;2022-12-07T04:49:59;8.10;;;5.18;;
62509;SDS011;48558;48.242;11.654;2022-12-07T04:54:13;6.32;;;4.93;;
62509;SDS011;48558;48.242;11.654;2022-12-07T04:58:26;5.55;;;4.38;;
62509;SDS011;48558;48.242;11.654;2022-12-07T05:02:39;7.00;;;4.40;;
62509;SDS011;48558;48.242;11.654;2022-12-07T05:06:51;7.22;;;4.85;;
62509;SDS011;48558;48.242;11.654;2022-12-07T05:11:04;6.72;;;4.97;;
62509;SDS011;48558;48.242;11.654;2022-12-07T05:15:17;5.75;;;4.50;;
62509;SDS011;48558;48.242;11.654;2022-12-07T05:19:30;8.55;;;5.50;;
62509;SDS011;48558;48.242;11.654;2022-12-07T05:23:42;6.43;;;4.70;;
62509;SDS011;48558;48.242;11.654;2022-12-07T05:27:55;8.27;;;5.22;;
62509;SDS011;48558;48.242;11.654;2022-12-07T05:32:08;8.27;;;6.13;;
62509;SDS011;48558;48.242;11.654;2022-12-07T05:36:20;7.53;;;4.82;;
62509;SDS011;48558;48.242;11.654;2022-12-07T05:40:33;8.30;;;5.20;;
62509;SDS011;48558;48.242;11.654;2022-12-07T05:44:46;8.30;;;6.00;;
62509;SDS011;48558;48.242;11.654;2022-12-07T05:48:59;6.38;;;4.88;;
62509;SDS011;48558;48.242;11.654;2022-12-07T05:53:11;8.30;;;5.13;;
62509;SDS011;48558;48.242;11.654;2022-12-07T05:57:31;9.88;;;5.43;;
62509;SDS011;48558;48.242;11.654;2022-12-07T06:01:43;7.63;;;5.50;;
62509;SDS011;48558;48.242;11.654;2022-12-07T06:06:05;5.88;;;4.55;;
62509;SDS011;48558;48.242;11.654;2022-12-07T06:10:18;5.82;;;3.95;;
62509;SDS011;48558;48.242;11.654;2022-12-07T06:14:30;8.57;;;5.15;;
62509;SDS011;48558;48.242;11.654;2022-12-07T06:18:43;7.80;;;4.88;;
62509;SDS011;48558;48.242;11.654;2022-12-07T06:22:55;9.25;;;4.70;;
62509;SDS011;48558;48.242;11.654;2022-12-07T06:27:11;7.30;;;5.18;;
62509;SDS011;48558;48.242;11.654;2022-12-07T06:31:30;7.73;;;5.47;;
62509;SDS011;48558;48.242;11.654;2022-12-07T06:35:42;5.45;;;4.00;;
62509;SDS011;48558;48.242;11.654;2022-12-07T06:39:54;7.70;;;5.50;;
62509;SDS011;48558;48.242;11.654;2022-12-07T06:44:07;6.78;;;5.07;;
62509;SDS011;48558;48.242;11.654;2022-12-07T06:48:19;4.40;;;3.80;;
62509;SDS011;48558;48.242;11.654;2022-12-07T06:52:33;7.53;;;4.78;;
62509;SDS011;48558;48.242;11.654;2022-12-07T06:56:46;7.38;;;5.72;;
62509;SDS011;48558;48.242;11.654;2022-12-07T07:00:58;9.43;;;5.68;;
62509;SDS011;48558;48.242;11.654;2022-12-07T07:05:11;6.40;;;5.22;;
62509;SDS011;48558;48.242;11.654;2022-12-07T07:09:26;8.38;;;5.47;;
62509;SDS011;48558;48.242;11.654;2022-12-07T07:13:39;8.30;;;4.95;;
62509;SDS011;48558;48.242;11.654;2022-12-07T07:17:51;6.55;;;5.07;;
62509;SDS011;48558;48.242;11.654;2022-12-07T07:22:04;9.15;;;5.75;;
62509;SDS011;48558;48.242;11.654;2022-12-07T07:26:17;8.85;;;5.80;;
62509;SDS011;48558;48.242;11.654;2022-12-07T07:30:43;5.97;;;4.78;;
62509;SDS011;48558;48.242;11.654;2022-12-07T07:34:56;10.00;;;5.95;;
62509;SDS011;48558;48.242;11.654;2022-12-07T07:39:09;4.05;;;3.50;;
62509;SDS011;48558;48.242;11.654;2022-12-07T07:43:22;7.53;;;5.18;;
62509;SDS011;48558;48.242;11.654;2022-12-07T07:47:34;7.85;;;4.07;;
62509;SDS011;48558;48.242;11.654;2022-12-07T07:51:47;7.30;;;5.28;;
62509;SDS011;48558;48.242;11.654;2022-12-07T07:55:59;8.75;;;6.40;;
62509;SDS011;48558;48.242;11.654;2022-12-07T08:00:13;12.10;;;5.22;;
62509;SDS011;48558;48.242;11.654;2022-12-07T08:04:26;9.35;;;6.10;;
62509;SDS011;48558;48.242;11.654;2022-12-07T08:08:38;8.73;;;5.55;;
62509;SDS011;48558;48.242;11.654;2022-12-07T08:12:51;8.40;;;5.53;;
62509;SDS011;48558;48.242;11.654;2022-12-07T08:17:22;9.88;;;6.88;;
62509;SDS011;48558;48.242;11.654;2022-12-07T08:21:34;7.90;;;5.60;;
62509;SDS011;48558;48.242;11.654;2022-12-07T08:25:46;7.35;;;5.85;;
62509;SDS011;48558;48.242;11.654;2022-12-07T08:29:59;7.43;;;5.82;;
62509;SDS011;48558;48.242;11.654;2022-12-07T08:34:12;9.32;;;6.40;;
62509;SDS011;48558;48.242;11.654;2022-12-07T08:38:25;7.97;;;4.95;;
62509;SDS011;48558;48.242;11.654;2022-12-07T08:42:42;7.25;;;5.40;;
62509;SDS011;48558;48.242;11.654;2022-12-07T08:46:58;7.18;;;5.13;;
62509;SDS011;48558;48.242;11.654;2022-12-07T08:51:14;6.38;;;5.15;;
62509;SDS011;48558;48.242;11.654;2022-12-07T08:55:27;8.57;;;5.63;;
62509;SDS011;48558;48.242;11.654;2022-12-07T08:59:41;9.13;;;5.70;;
62509;SDS011;48558;48.242;11.654;2022-12-07T09:03:53;10.95;;;6.18;;
62509;SDS011;48558;48.242;11.654;2022-12-07T09:08:05;8.35;;;6.28;;
62509;SDS011;48558;48.242;11.654;2022-12-07T09:12:19;9.57;;;6.15;;
62509;SDS011;48558;48.242;11.654;2022-12-07T09:16:31;9.00;;;5.43;;
62509;SDS011;48558;48.242;11.654;2022-12-07T09:20:43;9.55;;;5.47;;
62509;SDS011;48558;48.242;11.654;2022-12-07T09:24:59;8.18;;;5.75;;
62509;SDS011;48558;48.242;11.654;2022-12-07T09:29:12;13.45;;;6.72;;
62509;SDS011;48558;48.242;11.654;2022-12-07T09:33:24;7.68;;;5.95;;
62509;SDS011;48558;48.242;11.654;2022-12-07T09:37:36;7.15;;;5.00;;
62509;SDS011;48558;48.242;11.654;2022-12-07T09:41:49;8.73;;;6.40;;
62509;SDS011;48558;48.242;11.654;2022-12-07T09:46:02;8.57;;;6.20;;
62509;SDS011;48558;48.242;11.654;2022-12-07T09:50:17;7.70;;;4.70;;
62509;SDS011;48558;48.242;11.654;2022-12-07T09:54:36;8.32;;;5.68;;
62509;SDS011;48558;48.242;11.654;2022-12-07T09:58:58;7.65;;;5.47;;
62509;SDS011;48558;48.242;11.654;2022-12-07T10:03:14;8.98;;;6.15;;
62509;SDS011;48558;48.242;11.654;2022-12-07T10:07:26;7.57;;;5.13;;
62509;SDS011;48558;48.242;11.654;2022-12-07T10:11:58;8.45;;;5.63;;
62509;SDS011;48558;48.242;11.654;2022-12-07T10:20:49;9.13;;;5.95;;
62509;SDS011;48558;48.242;11.654;2022-12-07T10:25:08;7.57;;;5.22;;
62509;SDS011;48558;48.242;11.654;2022-12-07T10:29:31;8.52;;;5.38;;
62509;SDS011;48558;48.242;11.654;2022-12-07T10:33:52;7.43;;;4.80;;
62509;SDS011;48558;48.242;11.654;2022-12-07T10:38:07;6.32;;;4.47;;
62509;SDS011;48558;48.242;11.654;2022-12-07T10:42:30;5.35;;;4.05;;
62509;SDS011;48558;48.242;11.654;2022-12-07T10:46:46;8.30;;;4.95;;
62509;SDS011;48558;48.242;11.654;2022-12-07T11:00:43;7.22;;;4.07;;
62509;SDS011;48558;48.242;11.654;2022-12-07T11:09:51;5.00;;;4.10;;
62509;SDS011;48558;48.242;11.654;2022-12-07T11:18:57;5.82;;;4.20;;
62509;SDS011;48558;48.242;11.654;2022-12-07T11:23:44;7.68;;;4.72;;
62509;SDS011;48558;48.242;11.654;2022-12-07T11:28:10;6.50;;;4.30;;
62509;SDS011;48558;48.242;11.654;2022-12-07T11:37:08;4.63;;;3.65;;
62509;SDS011;48558;48.242;11.654;2022-12-07T11:41:27;6.75;;;4.53;;
62509;SDS011;48558;48.242;11.654;2022-12-07T11:45:44;6.82;;;4.75;;
62509;SDS011;48558;48.242;11.654;2022-12-07T11:54:43;7.28;;;3.22;;
62509;SDS011;48558;48.242;11.654;2022-12-07T11:59:08;4.65;;;3.38;;
62509;SDS011;48558;48.242;11.654;2022-12-07T12:03:32;4.60;;;3.30;;
62509;SDS011;48558;48.242;11.654;2022-12-07T12:07:59;3.25;;;2.95;;
62509;SDS011;48558;48.242;11.654;2022-12-07T12:17:47;8.30;;;4.73;;
62509;SDS011;48558;48.242;11.654;2022-12-07T12:22:17;5.88;;;4.15;;
62509;SDS011;48558;48.242;11.654;2022-12-07T12:26:33;6.35;;;4.45;;
62509;SDS011;48558;48.242;11.654;2022-12-07T12:31:04;7.07;;;5.00;;
62509;SDS011;48558;48.242;11.654;2022-12-07T12:35:32;6.88;;;4.32;;
62509;SDS011;48558;48.242;11.654;2022-12-07T12:48:41;6.78;;;4.43;;
62509;SDS011;48558;48.242;11.654;2022-12-07T12:52:58;5.40;;;3.33;;
62509;SDS011;48558;48.242;11.654;2022-12-07T12:57:18;6.22;;;4.35;;
62509;SDS011;48558;48.242;11.654;2022-12-07T13:01:39;9.35;;;4.68;;
62509;SDS011;48558;48.242;11.654;2022-12-07T13:10:40;8.80;;;4.55;;
62509;SDS011;48558;48.242;11.654;2022-12-07T13:14:58;3.33;;;2.90;;
62509;SDS011;48558;48.242;11.654;2022-12-07T13:24:07;9.75;;;4.43;;
62509;SDS011;48558;48.242;11.654;2022-12-07T13:28:25;10.43;;;5.47;;
62509;SDS011;48558;48.242;11.654;2022-12-07T13:32:53;5.65;;;4.13;;
62509;SDS011;48558;48.242;11.654;2022-12-07T13:41:58;7.75;;;5.38;;
62509;SDS011;48558;48.242;11.654;2022-12-07T13:46:12;7.45;;;5.28;;
62509;SDS011;48558;48.242;11.654;2022-12-07T13:50:30;8.38;;;4.78;;
62509;SDS011;48558;48.242;11.654;2022-12-07T13:54:47;7.07;;;5.15;;
62509;SDS011;48558;48.242;11.654;2022-12-07T13:59:02;8.73;;;5.90;;
62509;SDS011;48558;48.242;11.654;2022-12-07T14:07:29;6.45;;;5.20;;
62509;SDS011;48558;48.242;11.654;2022-12-07T14:11:42;9.02;;;4.90;;
62509;SDS011;48558;48.242;11.654;2022-12-07T14:15:54;6.25;;;4.45;;
62509;SDS011;48558;48.242;11.654;2022-12-07T14:20:28;6.93;;;4.35;;
62509;SDS011;48558;48.242;11.654;2022-12-07T14:24:45;6.57;;;4.68;;
62509;SDS011;48558;48.242;11.654;2022-12-07T14:33:33;8.02;;;4.75;;
62509;SDS011;48558;48.242;11.654;2022-12-07T14:37:55;6.90;;;4.88;;
62509;SDS011;48558;48.242;11.654;2022-12-07T14:42:08;9.07;;;5.20;;
62509;SDS011;48558;48.242;11.654;2022-12-07T14:46:21;10.07;;;4.93;;
62509;SDS011;48558;48.242;11.654;2022-12-07T14:50:35;7.65;;;4.57;;
62509;SDS011;48558;48.242;11.654;2022-12-07T14:55:24;5.82;;;4.22;;
62509;SDS011;48558;48.242;11.654;2022-12-07T14:59:38;16.35;;;5.05;;
62509;SDS011;48558;48.242;11.654;2022-12-07T15:03:55;11.95;;;7.35;;
62509;SDS011;48558;48.242;11.654;2022-12-07T15:08:11;9.27;;;5.50;;
62509;SDS011;48558;48.242;11.654;2022-12-07T15:12:24;7.10;;;4.30;;
62509;SDS011;48558;48.242;11.654;2022-12-07T15:16:37;8.43;;;5.57;;
62509;SDS011;48558;48.242;11.654;2022-12-07T15:21:15;12.20;;;4.43;;
62509;SDS011;48558;48.242;11.654;2022-12-07T15:25:28;7.38;;;4.38;;
62509;SDS011;48558;48.242;11.654;2022-12-07T15:29:40;7.05;;;4.97;;
62509;SDS011;48558;48.242;11.654;2022-12-07T15:33:52;8.30;;;5.40;;
62509;SDS011;48558;48.242;11.654;2022-12-07T15:38:05;8.98;;;6.05;;
62509;SDS011;48558;48.242;11.654;2022-12-07T15:42:17;9.00;;;5.30;;
62509;SDS011;48558;48.242;11.654;2022-12-07T15:46:30;7.35;;;4.65;;
62509;SDS011;48558;48.242;11.654;2022-12-07T15:50:44;9.73;;;6.32;;
62509;SDS011;48558;48.242;11.654;2022-12-07T15:54:56;8.25;;;5.10;;
62509;SDS011;48558;48.242;11.654;2022-12-07T15:59:08;10.65;;;4.63;;
62509;SDS011;48558;48.242;11.654;2022-12-07T16:03:21;10.70;;;4.95;;
62509;SDS011;48558;48.242;11.654;2022-12-07T16:07:33;6.13;;;4.60;;
62509;SDS011;48558;48.242;11.654;2022-12-07T16:11:45;7.43;;;4.90;;
62509;SDS011;48558;48.242;11.654;2022-12-07T16:16:05;8.40;;;4.73;;
62509;SDS011;48558;48.242;11.654;2022-12-07T16:20:19;6.93;;;5.00;;
62509;SDS011;48558;48.242;11.654;2022-12-07T16:24:31;6.47;;;4.57;;
62509;SDS011;48558;48.242;11.654;2022-12-07T16:28:45;8.88;;;3.65;;
62509;SDS011;48558;48.242;11.654;2022-12-07T16:33:00;5.88;;;4.25;;
62509;SDS011;48558;48.242;11.654;2022-12-07T16:37:13;6.95;;;4.63;;
62509;SDS011;48558;48.242;11.654;2022-12-07T16:41:35;5.28;;;3.97;;
62509;SDS011;48558;48.242;11.654;2022-12-07T16:45:48;6.57;;;4.13;;
62509;SDS011;48558;48.242;11.654;2022-12-07T16:50:01;10.52;;;4.50;;
62509;SDS011;48558;48.242;11.654;2022-12-07T16:54:14;5.22;;;4.10;;
62509;SDS011;48558;48.242;11.654;2022-12-07T16:58:36;6.65;;;4.25;;
62509;SDS011;48558;48.242;11.654;2022-12-07T17:02:50;5.70;;;4.20;;
62509;SDS011;48558;48.242;11.654;2022-12-07T17:07:03;9.65;;;4.63;;
62509;SDS011;48558;48.242;11.654;2022-12-07T17:11:25;6.38;;;4.70;;
62509;SDS011;48558;48.242;11.654;2022-12-07T17:15:39;7.93;;;4.60;;
62509;SDS011;48558;48.242;11.654;2022-12-07T17:19:57;5.35;;;4.22;;
62509;SDS011;48558;48.242;11.654;2022-12-07T17:24:10;9.90;;;4.97;;
62509;SDS011;48558;48.242;11.654;2022-12-07T17:28:24;6.43;;;4.32;;
62509;SDS011;48558;48.242;11.654;2022-12-07T17:32:36;4.95;;;4.07;;
62509;SDS011;48558;48.242;11.654;2022-12-07T17:36:48;6.38;;;4.65;;
62509;SDS011;48558;48.242;11.654;2022-12-07T17:41:07;6.72;;;4.53;;
62509;SDS011;48558;48.242;11.654;2022-12-07T17:45:23;10.82;;;4.88;;
62509;SDS011;48558;48.242;11.654;2022-12-07T17:49:36;7.50;;;4.65;;
62509;SDS011;48558;48.242;11.654;2022-12-07T17:53:49;6.97;;;3.85;;
62509;SDS011;48558;48.242;11.654;2022-12-07T17:58:02;7.30;;;4.75;;
62509;SDS011;48558;48.242;11.654;2022-12-07T18:02:15;6.20;;;4.53;;
62509;SDS011;48558;48.242;11.654;2022-12-07T18:06:27;6.22;;;3.75;;
62509;SDS011;48558;48.242;11.654;2022-12-07T18:10:39;5.50;;;3.85;;
62509;SDS011;48558;48.242;11.654;2022-12-07T18:14:52;8.48;;;4.97;;
62509;SDS011;48558;48.242;11.654;2022-12-07T18:19:06;6.72;;;4.20;;
62509;SDS011;48558;48.242;11.654;2022-12-07T18:23:20;10.60;;;3.88;;
62509;SDS011;48558;48.242;11.654;2022-12-07T18:27:32;10.40;;;4.75;;
62509;SDS011;48558;48.242;11.654;2022-12-07T18:31:45;5.65;;;4.13;;
62509;SDS011;48558;48.242;11.654;2022-12-07T18:35:59;5.82;;;4.20;;
62509;SDS011;48558;48.242;11.654;2022-12-07T18:40:21;6.68;;;4.10;;
62509;SDS011;48558;48.242;11.654;2022-12-07T18:44:43;4.45;;;3.47;;
62509;SDS011;48558;48.242;11.654;2022-12-07T18:48:56;6.50;;;4.03;;
62509;SDS011;48558;48.242;11.654;2022-12-07T18:53:08;4.97;;;3.47;;
62509;SDS011;48558;48.242;11.654;2022-12-07T18:57:21;8.48;;;4.88;;
62509;SDS011;48558;48.242;11.654;2022-12-07T19:01:34;6.25;;;3.88;;
62509;SDS011;48558;48.242;11.654;2022-12-07T19:05:47;5.75;;;3.97;;
62509;SDS011;48558;48.242;11.654;2022-12-07T19:09:59;6.47;;;4.18;;
62509;SDS011;48558;48.242;11.654;2022-12-07T19:14:12;7.72;;;5.13;;
62509;SDS011;48558;48.242;11.654;2022-12-07T19:18:25;9.98;;;5.60;;
62509;SDS011;48558;48.242;11.654;2022-12-07T19:22:37;10.73;;;5.97;;
62509;SDS011;48558;48.242;11.654;2022-12-07T19:26:57;9.30;;;5.90;;
62509;SDS011;48558;48.242;11.654;2022-12-07T19:31:09;5.03;;;4.07;;
62509;SDS011;48558;48.242;11.654;2022-12-07T19:35:23;15.68;;;6.63;;
62509;SDS011;48558;48.242;11.654;2022-12-07T19:39:35;9.57;;;5.80;;
62509;SDS011;48558;48.242;11.654;2022-12-07T19:43:47;13.30;;;6.45;;
62509;SDS011;48558;48.242;11.654;2022-12-07T19:47:59;12.23;;;5.47;;
62509;SDS011;48558;48.242;11.654;2022-12-07T19:52:12;9.25;;;5.40;;
62509;SDS011;48558;48.242;11.654;2022-12-07T19:56:25;8.73;;;4.88;;
62509;SDS011;48558;48.242;11.654;2022-12-07T20:00:39;11.00;;;5.88;;
62509;SDS011;48558;48.242;11.654;2022-12-07T20:04:51;9.27;;;5.88;;
62509;SDS011;48558;48.242;11.654;2022-12-07T20:09:04;14.07;;;6.25;;
62509;SDS011;48558;48.242;11.654;2022-12-07T20:13:16;9.68;;;6.18;;
62509;SDS011;48558;48.242;11.654;2022-12-07T20:17:43;6.75;;;4.45;;
62509;SDS011;48558;48.242;11.654;2022-12-07T20:21:55;8.38;;;5.40;;
62509;SDS011;48558;48.242;11.654;2022-12-07T20:26:09;7.80;;;4.85;;
62509;SDS011;48558;48.242;11.654;2022-12-07T20:30:22;5.80;;;4.13;;
62509;SDS011;48558;48.242;11.654;2022-12-07T20:34:35;9.23;;;4.97;;
62509;SDS011;48558;48.242;11.654;2022-12-07T20:38:47;8.90;;;5.10;;
62509;SDS011;48558;48.242;11.654;2022-12-07T20:43:09;7.43;;;5.38;;
62509;SDS011;48558;48.242;11.654;2022-12-07T20:47:22;9.00;;;5.63;;
62509;SDS011;48558;48.242;11.654;2022-12-07T20:51:34;9.13;;;5.75;;
62509;SDS011;48558;48.242;11.654;2022-12-07T20:55:46;9.93;;;5.45;;
62509;SDS011;48558;48.242;11.654;2022-12-07T21:00:03;13.90;;;6.80;;
62509;SDS011;48558;48.242;11.654;2022-12-07T21:04:28;11.73;;;6.97;;
62509;SDS011;48558;48.242;11.654;2022-12-07T21:08:44;10.30;;;6.60;;
62509;SDS011;48558;48.242;11.654;2022-12-07T21:12:58;10.85;;;6.47;;
62509;SDS011;48558;48.242;11.654;2022-12-07T21:17:10;15.18;;;7.07;;
62509;SDS011;48558;48.242;11.654;2022-12-07T21:21:23;8.10;;;5.47;;
62509;SDS011;48558;48.242;11.654;2022-12-07T21:25:40;8.30;;;4.95;;
62509;SDS011;48558;48.242;11.654;2022-12-07T21:29:53;7.53;;;5.70;;
62509;SDS011;48558;48.242;11.654;2022-12-07T21:34:06;12.32;;;6.10;;
62509;SDS011;48558;48.242;11.654;2022-12-07T21:38:18;10.40;;;6.15;;
62509;SDS011;48558;48.242;11.654;2022-12-07T21:42:31;9.82;;;5.13;;
62509;SDS011;48558;48.242;11.654;2022-12-07T21:46:43;10.45;;;6.45;;
62509;SDS011;48558;48.242;11.654;2022-12-07T21:51:01;9.25;;;5.88;;
62509;SDS011;48558;48.242;11.654;2022-12-07T21:59:27;9.25;;;5.97;;
62509;SDS011;48558;48.242;11.654;2022-12-07T22:03:39;11.35;;;5.78;;
62509;SDS011;48558;48.242;11.654;2022-12-07T22:07:52;9.43;;;5.90;;
62509;SDS011;48558;48.242;11.654;2022-12-07T22:12:04;12.07;;;5.97;;
62509;SDS011;48558;48.242;11.654;2022-12-07T22:16:18;9.82;;;6.43;;
62509;SDS011;48558;48.242;11.654;2022-12-07T22:20:30;9.40;;;6.40;;
62509;SDS011;48558;48.242;11.654;2022-12-07T22:24:43;11.32;;;6.57;;
62509;SDS011;48558;48.242;11.654;2022-12-07T22:28:55;10.35;;;6.13;;
62509;SDS011;48558;48.242;11.654;2022-12-07T22:33:07;10.65;;;7.00;;
62509;SDS011;48558;48.242;11.654;2022-12-07T22:37:20;12.50;;;6.40;;
62509;SDS011;48558;48.242;11.654;2022-12-07T22:41:32;13.75;;;6.75;;
62509;SDS011;48558;48.242;11.654;2022-12-07T22:45:54;9.60;;;6.18;;
62509;SDS011;48558;48.242;11.654;2022-12-07T22:50:07;10.50;;;6.47;;
62509;SDS011;48558;48.242;11.654;2022-12-07T22:54:20;7.80;;;5.13;;
62509;SDS011;48558;48.242;11.654;2022-12-07T22:58:32;12.13;;;6.93;;
62509;SDS011;48558;48.242;11.654;2022-12-07T23:02:44;9.30;;;6.40;;
62509;SDS011;48558;48.242;11.654;2022-12-07T23:06:57;13.55;;;6.40;;
62509;SDS011;48558;48.242;11.654;2022-12-07T23:11:11;10.90;;;7.10;;
62509;SDS011;48558;48.242;11.654;2022-12-07T23:15:48;10.05;;;6.50;;
62509;SDS011;48558;48.242;11.654;2022-12-07T23:20:02;11.88;;;6.28;;
62509;SDS011;48558;48.242;11.654;2022-12-07T23:24:16;10.93;;;6.15;;
62509;SDS011;48558;48.242;11.654;2022-12-07T23:28:28;8.27;;;5.80;;
62509;SDS011;48558;48.242;11.654;2022-12-07T23:32:40;8.77;;;6.03;;
62509;SDS011;48558;48.242;11.654;2022-12-07T23:36:53;11.07;;;6.63;;
62509;SDS011;48558;48.242;11.654;2022-12-07T23:41:16;10.20;;;6.05;;
62509;SDS011;48558;48.242;11.654;2022-12-07T23:45:29;12.10;;;6.50;;
62509;SDS011;48558;48.242;11.654;2022-12-07T23:49:42;12.68;;;6.30;;
62509;SDS011;48558;48.242;11.654;2022-12-07T23:53:54;10.90;;;6.65;;
62509;SDS011;48558;48.242;11.654;2022-12-07T23:58:08;10.48;;;6.20;;
